Time;durP1;ratioP1;P1;durP2;ratioP2;P2;SDS_P1;SDS_P2;PMS_P1;PMS_P2;Temp;Humidity;BMP_temperature;BMP_pressure;BME280_temperature;BME280_humidity;BME280_pressure;Samples;Min_cycle;Max_cycle;Signal;HPM_P1;HPM_P2
2020/12/12 00:01:25;;;;;;;2.70;2.28;;;8.50;99.90;;;;;;5073632;28;20093;-85
2020/12/12 00:03:50;;;;;;;2.42;2.22;;;8.60;99.90;;;;;;5073367;28;20476;-85
2020/12/12 00:06:21;;;;;;;2.50;2.28;;;8.50;99.90;;;;;;5074477;28;20029;-85
2020/12/12 00:08:46;;;;;;;2.40;2.20;;;8.50;99.90;;;;;;5094221;28;20012;-85
2020/12/12 00:11:12;;;;;;;2.53;2.22;;;8.50;99.90;;;;;;5090556;28;20391;-85
2020/12/12 00:13:37;;;;;;;2.65;2.45;;;8.50;99.90;;;;;;5082802;28;20083;-85
2020/12/12 00:16:06;;;;;;;2.40;2.20;;;8.50;99.90;;;;;;5082904;28;20055;-85
2020/12/12 00:18:32;;;;;;;2.55;2.35;;;8.50;99.90;;;;;;5092509;28;20035;-85
2020/12/12 00:20:58;;;;;;;3.30;2.72;;;8.50;99.90;;;;;;5078825;28;20031;-85
2020/12/12 00:23:24;;;;;;;2.65;2.42;;;8.60;99.90;;;;;;5078274;28;20433;-85
2020/12/12 00:25:49;;;;;;;3.58;2.55;;;8.60;99.90;;;;;;5090370;28;20034;-85
2020/12/12 00:28:15;;;;;;;2.83;2.63;;;8.60;99.90;;;;;;5077119;28;20032;-86
2020/12/12 00:30:41;;;;;;;3.10;2.80;;;8.60;99.90;;;;;;5084530;28;20020;-86
2020/12/12 00:33:07;;;;;;;3.17;2.78;;;8.60;99.90;;;;;;5092392;28;20449;-85
2020/12/12 00:35:32;;;;;;;3.10;2.80;;;8.60;99.90;;;;;;5076929;28;20496;-85
2020/12/12 00:37:58;;;;;;;2.97;2.63;;;8.60;99.90;;;;;;5072686;28;20017;-85
2020/12/12 00:40:23;;;;;;;3.05;2.65;;;8.60;99.90;;;;;;5082783;28;20693;-85
2020/12/12 00:42:49;;;;;;;3.38;3.08;;;8.60;99.90;;;;;;5092349;28;20492;-85
2020/12/12 00:45:15;;;;;;;3.47;3.00;;;8.60;99.90;;;;;;5089471;28;20031;-85
2020/12/12 00:47:40;;;;;;;2.95;2.70;;;8.60;99.90;;;;;;5076303;28;20025;-85
2020/12/12 00:50:06;;;;;;;4.68;3.42;;;8.60;99.90;;;;;;5072413;28;20043;-85
2020/12/12 00:52:32;;;;;;;5.13;3.20;;;8.70;99.90;;;;;;5082385;28;20069;-85
2020/12/12 00:54:57;;;;;;;3.45;3.15;;;8.60;99.90;;;;;;5085139;28;20115;-85
2020/12/12 00:57:23;;;;;;;4.38;3.35;;;8.70;99.90;;;;;;5092335;28;20107;-85
2020/12/12 00:59:48;;;;;;;3.88;3.53;;;8.60;99.90;;;;;;5082381;28;20024;-85
2020/12/12 01:02:14;;;;;;;4.25;3.10;;;8.60;99.90;;;;;;5073413;28;20510;-84
2020/12/12 01:04:40;;;;;;;4.18;3.70;;;8.60;99.90;;;;;;5073714;28;20025;-85
2020/12/12 01:07:05;;;;;;;4.90;3.53;;;8.60;99.90;;;;;;5073413;28;20447;-85
2020/12/12 01:09:31;;;;;;;4.40;3.35;;;8.60;99.90;;;;;;5078819;28;20067;-84
2020/12/12 01:11:57;;;;;;;3.92;3.53;;;8.50;99.90;;;;;;5079559;28;20027;-84
2020/12/12 01:14:23;;;;;;;3.83;3.42;;;8.40;99.90;;;;;;5091692;28;20042;-85
2020/12/12 01:16:48;;;;;;;4.68;3.67;;;8.40;99.90;;;;;;5091803;28;20027;-85
2020/12/12 01:19:14;;;;;;;4.68;4.20;;;8.40;99.90;;;;;;5093514;28;20024;-85
2020/12/12 01:21:39;;;;;;;4.03;3.63;;;8.40;99.90;;;;;;5083935;28;20025;-85
2020/12/12 01:24:05;;;;;;;5.60;4.00;;;8.50;99.90;;;;;;5081605;28;20035;-85
2020/12/12 01:26:32;;;;;;;4.05;3.63;;;8.40;99.90;;;;;;5087838;28;20028;-85
2020/12/12 01:28:59;;;;;;;4.10;3.70;;;8.40;99.90;;;;;;5075054;28;20119;-85
2020/12/12 01:31:28;;;;;;;4.45;4.00;;;8.50;99.90;;;;;;5080518;28;20081;-85
2020/12/12 01:33:53;;;;;;;5.00;4.25;;;8.40;99.90;;;;;;5087744;28;20020;-85
2020/12/12 01:36:19;;;;;;;5.65;3.90;;;8.50;99.90;;;;;;5078785;28;20036;-85
2020/12/12 01:38:45;;;;;;;4.93;4.22;;;8.50;99.90;;;;;;5088085;28;20040;-85
2020/12/12 01:41:11;;;;;;;4.82;4.28;;;8.50;99.90;;;;;;5081148;28;20025;-85
2020/12/12 01:43:37;;;;;;;6.07;4.10;;;8.50;99.90;;;;;;5092572;28;20049;-85
2020/12/12 01:46:02;;;;;;;5.25;4.25;;;8.50;99.90;;;;;;5092406;28;20036;-85
2020/12/12 01:48:28;;;;;;;6.18;3.95;;;8.60;99.90;;;;;;5087179;28;20423;-85
2020/12/12 01:50:56;;;;;;;4.53;4.00;;;8.60;99.90;;;;;;5092341;28;20028;-85
2020/12/12 01:53:26;;;;;;;5.00;4.07;;;8.60;99.90;;;;;;5080724;28;20024;-85
2020/12/12 01:55:51;;;;;;;5.88;3.97;;;8.60;99.90;;;;;;5088772;28;20033;-85
2020/12/12 01:58:17;;;;;;;4.40;3.50;;;8.50;99.90;;;;;;5081406;28;20020;-85
2020/12/12 02:00:43;;;;;;;4.28;3.88;;;8.50;99.90;;;;;;5077540;28;20388;-85
2020/12/12 02:03:10;;;;;;;4.72;4.30;;;8.50;99.90;;;;;;5092199;28;20020;-85
2020/12/12 02:05:39;;;;;;;5.00;4.28;;;8.60;99.90;;;;;;5072843;28;20028;-85
2020/12/12 02:08:08;;;;;;;4.70;4.20;;;8.60;99.90;;;;;;5072526;28;20532;-85
2020/12/12 02:10:35;;;;;;;4.95;4.05;;;8.60;99.90;;;;;;5076446;28;20024;-84
2020/12/12 02:13:02;;;;;;;4.68;3.63;;;8.60;99.90;;;;;;5076973;28;20523;-85
2020/12/12 02:15:28;;;;;;;4.05;3.60;;;8.60;99.90;;;;;;5072470;28;20024;-85
2020/12/12 02:17:54;;;;;;;4.22;3.80;;;8.60;99.90;;;;;;5071240;28;20388;-84
2020/12/12 02:20:19;;;;;;;5.28;3.50;;;8.60;99.90;;;;;;5071429;28;20103;-85
2020/12/12 02:22:45;;;;;;;5.35;3.42;;;8.60;99.90;;;;;;5070947;28;20026;-85
2020/12/12 02:25:11;;;;;;;4.68;3.47;;;8.50;99.90;;;;;;5073448;28;20491;-85
2020/12/12 02:27:37;;;;;;;4.40;3.88;;;8.50;99.90;;;;;;5077318;28;20097;-85
2020/12/12 02:30:04;;;;;;;6.03;3.78;;;8.50;99.90;;;;;;5094778;28;20035;-85
2020/12/12 02:32:30;;;;;;;4.20;3.80;;;8.60;99.90;;;;;;5092453;28;20025;-85
2020/12/12 02:34:56;;;;;;;4.85;3.80;;;8.60;99.90;;;;;;5087878;28;20124;-85
2020/12/12 02:37:21;;;;;;;5.13;3.65;;;8.50;99.90;;;;;;5076117;28;20470;-85
2020/12/12 02:39:47;;;;;;;6.75;4.10;;;8.60;99.90;;;;;;5074940;28;20078;-84
2020/12/12 02:42:12;;;;;;;5.57;3.70;;;8.60;99.90;;;;;;5074784;28;20027;-85
2020/12/12 02:44:38;;;;;;;5.57;3.83;;;8.50;99.90;;;;;;5074886;28;20472;-85
2020/12/12 02:47:04;;;;;;;5.25;4.22;;;8.40;99.90;;;;;;5076581;28;20037;-84
2020/12/12 02:49:30;;;;;;;4.10;3.60;;;8.50;99.90;;;;;;5087654;28;20107;-85
2020/12/12 02:55:09;;;;;;;4.85;3.63;;;8.50;99.90;;;;;;5095831;28;20031;-85
2020/12/12 02:57:35;;;;;;;5.63;3.80;;;8.50;99.90;;;;;;5095637;28;20016;-85
2020/12/12 03:00:13;;;;;;;5.22;3.95;;;8.50;99.90;;;;;;5093053;28;20106;-85
2020/12/12 03:02:38;;;;;;;4.20;3.75;;;8.60;99.90;;;;;;5095317;28;20016;-85
2020/12/12 03:05:06;;;;;;;4.20;3.80;;;8.60;99.90;;;;;;5086747;28;20025;-85
2020/12/12 03:07:32;;;;;;;3.95;3.45;;;8.70;99.90;;;;;;5075245;28;20481;-85
2020/12/12 03:09:58;;;;;;;4.45;3.53;;;8.70;99.90;;;;;;5086952;28;20024;-85
2020/12/12 03:12:24;;;;;;;5.90;3.88;;;8.70;99.90;;;;;;5077102;28;20052;-85
2020/12/12 03:14:50;;;;;;;4.32;3.72;;;8.70;99.90;;;;;;5074199;28;20384;-84
2020/12/12 03:17:15;;;;;;;4.68;3.80;;;8.70;99.90;;;;;;5075096;28;20051;-85
2020/12/12 03:19:41;;;;;;;5.03;3.67;;;8.70;99.90;;;;;;5086388;28;20139;-85
2020/12/12 03:22:06;;;;;;;6.20;3.72;;;8.70;99.90;;;;;;5086947;28;20017;-85
2020/12/12 03:24:33;;;;;;;6.13;4.18;;;8.70;99.90;;;;;;5093809;28;20217;-85
2020/12/12 03:26:59;;;;;;;3.88;3.40;;;8.70;99.90;;;;;;5095509;28;20024;-85
2020/12/12 03:29:25;;;;;;;4.85;3.63;;;8.70;99.90;;;;;;5084973;28;20032;-85
2020/12/12 03:31:50;;;;;;;3.75;3.25;;;8.70;99.90;;;;;;5084072;28;20012;-85
2020/12/12 03:34:16;;;;;;;3.90;3.20;;;8.70;99.90;;;;;;5088341;28;20484;-85
2020/12/12 03:36:41;;;;;;;4.88;3.40;;;8.70;99.90;;;;;;5078384;28;20009;-85
2020/12/12 03:39:07;;;;;;;4.50;3.35;;;8.60;99.90;;;;;;5093261;28;20411;-85
2020/12/12 03:41:33;;;;;;;5.03;3.42;;;8.60;99.90;;;;;;5085852;28;20078;-85
2020/12/12 03:43:58;;;;;;;3.85;3.30;;;8.60;99.90;;;;;;5087759;28;20070;-84
2020/12/12 03:46:24;;;;;;;4.07;3.30;;;8.50;99.90;;;;;;5075149;28;20020;-85
2020/12/12 03:48:50;;;;;;;3.25;2.95;;;8.50;99.90;;;;;;5087226;28;20028;-84
2020/12/12 03:51:16;;;;;;;4.15;3.38;;;8.50;99.90;;;;;;5091350;28;20017;-85
2020/12/12 03:53:41;;;;;;;4.95;3.20;;;8.40;99.90;;;;;;5075053;28;20036;-85
2020/12/12 03:56:07;;;;;;;2.95;2.58;;;8.40;99.90;;;;;;5084850;28;20031;-85
2020/12/12 03:58:33;;;;;;;3.40;2.72;;;8.40;99.90;;;;;;5095078;28;20114;-85
2020/12/12 04:00:58;;;;;;;3.80;2.90;;;8.40;99.90;;;;;;5087478;28;20020;-85
2020/12/12 04:03:24;;;;;;;3.17;2.83;;;8.40;99.90;;;;;;5073272;28;20498;-85
2020/12/12 04:05:49;;;;;;;3.28;2.75;;;8.40;99.90;;;;;;5085774;28;20028;-85
2020/12/12 04:08:15;;;;;;;5.43;3.00;;;8.30;99.90;;;;;;5079617;28;20103;-85
2020/12/12 04:10:41;;;;;;;3.15;2.72;;;8.40;99.90;;;;;;5093137;28;20050;-84
2020/12/12 04:13:07;;;;;;;4.38;3.00;;;8.40;99.90;;;;;;5084359;28;20416;-84
2020/12/12 04:15:32;;;;;;;2.90;2.60;;;8.30;99.90;;;;;;5073242;28;20023;-85
2020/12/12 04:17:58;;;;;;;3.75;2.63;;;8.30;99.90;;;;;;5072862;28;20025;-85
2020/12/12 04:20:23;;;;;;;3.45;2.30;;;8.30;99.90;;;;;;5080674;28;20020;-85
2020/12/12 04:22:55;;;;;;;2.42;2.22;;;8.20;99.90;;;;;;5092355;28;20032;-85
2020/12/12 04:25:21;;;;;;;3.45;2.45;;;8.30;99.90;;;;;;5094549;28;20445;-85
2020/12/12 04:27:46;;;;;;;3.35;2.17;;;8.40;99.90;;;;;;5074796;28;20028;-85
2020/12/12 04:30:12;;;;;;;3.15;2.47;;;8.20;99.90;;;;;;5074105;28;20063;-85
2020/12/12 04:32:38;;;;;;;2.75;2.30;;;8.30;99.90;;;;;;5074125;28;20036;-85
2020/12/12 04:35:04;;;;;;;2.38;2.17;;;8.30;99.90;;;;;;5093103;28;20028;-85
2020/12/12 04:37:29;;;;;;;2.20;2.00;;;8.20;99.90;;;;;;5081268;28;20103;-85
2020/12/12 04:39:55;;;;;;;2.92;2.20;;;8.20;99.90;;;;;;5091642;28;20024;-85
2020/12/12 04:42:22;;;;;;;2.97;2.00;;;8.20;99.90;;;;;;5094191;28;20498;-85
2020/12/12 04:44:48;;;;;;;3.13;2.28;;;8.20;99.90;;;;;;5092955;28;20028;-84
2020/12/12 04:47:14;;;;;;;2.00;1.80;;;8.30;99.90;;;;;;5094054;28;20024;-85
2020/12/12 04:49:40;;;;;;;2.22;1.98;;;8.00;99.90;;;;;;5092185;28;20032;-85
2020/12/12 04:52:06;;;;;;;2.92;2.08;;;7.90;99.90;;;;;;5089468;28;20054;-85
2020/12/12 04:54:34;;;;;;;2.30;2.10;;;7.90;99.90;;;;;;5075844;28;20059;-85
2020/12/12 04:57:04;;;;;;;2.20;1.88;;;8.10;99.90;;;;;;5072299;28;20396;-85
2020/12/12 04:59:31;;;;;;;2.00;1.58;;;7.80;99.90;;;;;;5073743;28;20381;-85
2020/12/12 05:01:58;;;;;;;2.05;1.85;;;7.80;99.90;;;;;;5073384;28;20644;-85
2020/12/12 05:04:24;;;;;;;1.85;1.50;;;7.80;99.90;;;;;;5072231;28;20111;-85
2020/12/12 05:06:50;;;;;;;2.00;1.60;;;7.70;99.90;;;;;;5080342;28;20104;-85
2020/12/12 05:09:15;;;;;;;1.90;1.60;;;7.80;99.90;;;;;;5086134;28;20028;-85
2020/12/12 05:11:45;;;;;;;2.00;1.40;;;7.80;99.90;;;;;;5092984;28;20027;-85
2020/12/12 05:14:13;;;;;;;1.73;1.52;;;8.00;99.90;;;;;;5091753;28;20416;-85
2020/12/12 05:16:39;;;;;;;1.50;1.40;;;8.20;99.90;;;;;;5081586;28;20024;-85
2020/12/12 05:19:05;;;;;;;1.75;1.50;;;7.80;99.90;;;;;;5093080;28;20568;-85
2020/12/12 05:21:31;;;;;;;1.65;1.50;;;8.10;99.90;;;;;;5089203;28;20020;-85
2020/12/12 05:23:59;;;;;;;1.95;1.55;;;7.90;99.90;;;;;;5092621;28;20020;-85
2020/12/12 05:26:28;;;;;;;2.10;1.20;;;8.00;99.90;;;;;;5092761;28;20023;-85
2020/12/12 05:29:00;;;;;;;1.98;1.30;;;8.00;99.90;;;;;;5093163;28;20497;-85
2020/12/12 05:31:27;;;;;;;1.60;1.33;;;8.00;99.90;;;;;;5086009;28;20032;-85
2020/12/12 05:33:53;;;;;;;1.48;1.23;;;8.00;99.90;;;;;;5085010;28;20106;-85
2020/12/12 05:36:26;;;;;;;2.22;1.20;;;7.90;99.90;;;;;;5080858;28;20100;-85
2020/12/12 05:38:58;;;;;;;2.75;1.20;;;8.00;99.90;;;;;;5071815;28;20491;-85
2020/12/12 05:41:28;;;;;;;1.40;1.10;;;8.10;99.90;;;;;;5084603;28;20020;-85
2020/12/12 05:43:54;;;;;;;1.27;1.10;;;8.10;99.90;;;;;;5091190;28;20028;-85
2020/12/12 05:46:22;;;;;;;2.00;1.30;;;8.10;99.90;;;;;;5081855;28;20020;-85
2020/12/12 05:48:48;;;;;;;1.30;1.20;;;8.10;99.90;;;;;;5088857;28;20020;-85
2020/12/12 05:51:15;;;;;;;1.17;1.08;;;8.10;99.90;;;;;;5091581;28;20404;-85
2020/12/12 05:53:43;;;;;;;1.20;1.10;;;8.10;99.90;;;;;;5091758;28;20490;-85
2020/12/12 05:56:11;;;;;;;1.33;1.10;;;8.00;99.90;;;;;;5091625;28;20028;-85
2020/12/12 05:58:39;;;;;;;1.70;1.20;;;8.00;99.90;;;;;;5092879;28;20047;-85
2020/12/12 06:01:11;;;;;;;2.15;1.00;;;8.00;99.90;;;;;;5079603;28;20100;-85
2020/12/12 06:03:49;;;;;;;1.13;1.02;;;8.00;99.90;;;;;;5073914;28;20031;-85
2020/12/12 06:06:21;;;;;;;2.75;0.77;;;8.10;99.90;;;;;;5075839;28;20036;-85
2020/12/12 06:09:07;;;;;;;1.05;1.00;;;8.20;99.90;;;;;;5075540;28;20086;-85
2020/12/12 06:11:34;;;;;;;1.25;1.15;;;8.20;99.90;;;;;;5078673;28;20427;-85
2020/12/12 06:14:03;;;;;;;1.85;0.90;;;8.20;99.90;;;;;;5093339;28;20045;-85
2020/12/12 06:16:31;;;;;;;1.75;1.27;;;8.30;99.90;;;;;;5075094;28;20021;-84
2020/12/12 06:19:27;;;;;;;1.25;1.15;;;8.30;99.90;;;;;;5092296;28;20507;-85
2020/12/12 06:21:53;;;;;;;1.30;1.20;;;8.30;99.90;;;;;;5084416;28;20028;-85
2020/12/12 06:24:19;;;;;;;1.10;1.00;;;8.60;99.90;;;;;;5075428;28;20108;-85
2020/12/12 06:27:00;;;;;;;1.33;1.23;;;8.30;99.90;;;;;;5077649;28;20495;-85
2020/12/12 06:29:30;;;;;;;1.83;1.17;;;8.30;99.90;;;;;;5081566;28;20116;-85
2020/12/12 06:31:56;;;;;;;1.90;1.33;;;8.20;99.90;;;;;;5076306;28;20066;-85
2020/12/12 06:34:42;;;;;;;2.78;1.30;;;8.20;99.90;;;;;;5077451;28;20025;-85
2020/12/12 06:37:39;;;;;;;1.83;1.38;;;8.30;99.90;;;;;;5095282;28;20058;-85
2020/12/12 06:40:10;;;;;;;1.98;1.10;;;8.30;99.90;;;;;;5094742;28;20510;-85
2020/12/12 06:42:44;;;;;;;2.63;1.30;;;8.30;99.90;;;;;;5095607;28;20089;-84
2020/12/12 06:45:13;;;;;;;1.73;1.48;;;8.20;99.90;;;;;;5094739;28;20035;-85
2020/12/12 06:47:49;;;;;;;1.13;1.05;;;8.20;99.90;;;;;;5092771;28;20042;-85
2020/12/12 06:50:20;;;;;;;2.65;1.20;;;8.10;99.90;;;;;;5082642;28;20393;-85
2020/12/12 06:52:47;;;;;;;1.20;1.10;;;8.30;99.90;;;;;;5075032;28;20033;-85
2020/12/12 06:55:14;;;;;;;1.55;1.30;;;8.20;99.90;;;;;;5078329;28;20060;-85
2020/12/12 06:57:42;;;;;;;1.63;1.40;;;8.30;99.90;;;;;;5087244;28;20017;-85
2020/12/12 07:00:33;;;;;;;1.85;1.50;;;8.20;99.90;;;;;;5074453;28;20025;-85
2020/12/12 07:03:05;;;;;;;1.85;1.48;;;8.20;99.90;;;;;;5086939;28;20020;-85
2020/12/12 07:05:33;;;;;;;1.85;1.50;;;8.40;99.90;;;;;;5081404;28;20024;-84
2020/12/12 07:08:01;;;;;;;2.40;1.50;;;8.20;99.90;;;;;;5074364;28;20051;-85
2020/12/12 07:10:27;;;;;;;1.60;1.40;;;8.20;99.90;;;;;;5085339;28;20036;-85
2020/12/12 07:12:53;;;;;;;2.13;1.58;;;8.30;99.90;;;;;;5080187;28;20048;-85
2020/12/12 07:15:18;;;;;;;3.97;1.70;;;8.30;99.90;;;;;;5077157;28;20028;-85
2020/12/12 07:17:44;;;;;;;6.45;4.18;;;8.30;99.90;;;;;;5094951;28;20031;-85
2020/12/12 07:20:09;;;;;;;20.77;14.13;;;8.20;99.90;;;;;;5084516;28;20047;-86
2020/12/12 07:22:36;;;;;;;7.82;6.22;;;8.30;99.90;;;;;;5091137;28;20137;-85
2020/12/12 07:25:04;;;;;;;4.43;3.30;;;8.20;99.90;;;;;;5084420;28;20416;-86
2020/12/12 07:27:30;;;;;;;2.40;2.20;;;8.20;99.90;;;;;;5093387;28;20028;-85
2020/12/12 07:29:55;;;;;;;2.03;1.83;;;8.30;99.90;;;;;;5088571;28;20423;-86
2020/12/12 07:32:21;;;;;;;3.38;2.63;;;8.30;99.90;;;;;;5088155;28;20035;-85
2020/12/12 07:34:46;;;;;;;2.10;1.70;;;8.20;99.90;;;;;;5089239;28;20020;-85
2020/12/12 07:37:12;;;;;;;2.95;1.92;;;8.20;99.90;;;;;;5076215;28;20025;-86
2020/12/12 07:39:42;;;;;;;1.48;1.38;;;8.30;99.90;;;;;;5074972;28;20028;-88
2020/12/12 07:42:11;;;;;;;1.88;1.33;;;8.40;99.90;;;;;;5073492;28;20034;-86
2020/12/12 07:44:39;;;;;;;1.98;1.65;;;8.40;99.90;;;;;;5086239;28;20028;-87
2020/12/12 07:47:08;;;;;;;2.33;1.60;;;8.40;99.90;;;;;;5086461;28;20023;-85
2020/12/12 07:49:36;;;;;;;2.30;1.70;;;8.30;99.90;;;;;;5090701;28;20036;-85
2020/12/12 07:52:08;;;;;;;1.88;1.67;;;8.40;99.90;;;;;;5092909;28;20028;-85
2020/12/12 07:54:36;;;;;;;3.47;1.90;;;8.30;99.90;;;;;;5089375;28;20024;-86
2020/12/12 07:57:43;;;;;;;1.90;1.75;;;8.30;99.90;;;;;;5078885;28;20023;-86
2020/12/12 08:00:11;;;;;;;3.33;1.80;;;8.20;99.90;;;;;;5083682;28;20066;-85
2020/12/12 08:02:37;;;;;;;3.08;2.00;;;8.30;99.90;;;;;;5089610;28;20012;-85
2020/12/12 08:05:07;;;;;;;2.72;1.92;;;8.30;99.90;;;;;;5073152;28;20404;-85
2020/12/12 08:07:34;;;;;;;2.92;1.80;;;8.30;99.90;;;;;;5073174;28;20488;-85
2020/12/12 08:10:01;;;;;;;2.60;1.70;;;8.20;99.90;;;;;;5074356;28;20035;-85
2020/12/12 08:12:32;;;;;;;2.88;1.83;;;8.20;99.90;;;;;;5072688;28;20044;-85
2020/12/12 08:15:21;;;;;;;3.30;2.13;;;8.10;99.90;;;;;;5079683;28;20054;-85
2020/12/12 08:17:46;;;;;;;2.50;1.80;;;8.20;99.90;;;;;;5083896;28;20099;-85
2020/12/12 08:20:14;;;;;;;2.20;1.70;;;8.10;99.90;;;;;;5082425;28;20099;-86
2020/12/12 08:22:44;;;;;;;2.65;1.65;;;8.20;99.90;;;;;;5075677;28;20028;-87
2020/12/12 08:25:10;;;;;;;1.70;1.60;;;8.20;99.90;;;;;;5072657;28;20036;-86
2020/12/12 08:27:37;;;;;;;2.65;1.60;;;8.20;99.90;;;;;;5072549;28;20553;-87
2020/12/12 08:30:06;;;;;;;2.42;1.80;;;8.10;99.90;;;;;;5074926;28;20028;-87
2020/12/12 08:32:40;;;;;;;3.30;2.00;;;8.10;99.90;;;;;;5074893;28;20552;-88
2020/12/12 08:35:26;;;;;;;1.77;1.67;;;8.10;99.90;;;;;;5073901;28;20059;-87
2020/12/12 08:37:55;;;;;;;2.10;1.70;;;8.20;99.90;;;;;;5072716;28;20070;-86
2020/12/12 08:40:22;;;;;;;1.90;1.60;;;8.40;99.90;;;;;;5073977;28;20020;-86
2020/12/12 08:43:22;;;;;;;2.25;1.70;;;8.50;99.90;;;;;;5077524;28;20374;-86
2020/12/12 08:45:57;;;;;;;1.80;1.58;;;8.70;99.90;;;;;;5081745;28;20110;-87
2020/12/12 08:48:34;;;;;;;2.03;1.83;;;8.80;99.90;;;;;;5089167;28;20063;-88
2020/12/12 08:51:02;;;;;;;1.75;1.65;;;9.00;99.90;;;;;;5073889;28;20024;-87
2020/12/12 08:53:33;;;;;;;2.15;1.77;;;9.10;99.90;;;;;;5083599;28;20495;-87
2020/12/12 08:56:28;;;;;;;2.45;2.03;;;9.40;99.90;;;;;;5076170;28;20032;-87
2020/12/12 08:59:03;;;;;;;3.03;2.35;;;9.50;99.90;;;;;;5081414;28;20016;-87
2020/12/12 09:01:30;;;;;;;2.05;1.85;;;9.30;99.90;;;;;;5082945;28;20033;-87
2020/12/12 09:04:05;;;;;;;2.78;1.73;;;9.00;99.90;;;;;;5089237;28;20028;-88
2020/12/12 09:06:53;;;;;;;2.10;1.90;;;8.90;99.90;;;;;;5079473;28;20040;-87
2020/12/12 09:09:20;;;;;;;2.45;1.90;;;8.90;99.90;;;;;;5075408;28;20029;-87
2020/12/12 09:11:55;;;;;;;2.42;1.95;;;9.00;99.90;;;;;;5072021;28;20044;-88
2020/12/12 09:14:22;;;;;;;2.40;1.67;;;9.00;99.90;;;;;;5071871;28;20162;-88
2020/12/12 09:16:53;;;;;;;4.00;2.40;;;9.10;99.90;;;;;;5079969;28;20037;-88
2020/12/12 09:19:19;;;;;;;3.08;2.03;;;9.00;99.90;;;;;;5081015;28;20017;-88
2020/12/12 09:21:44;;;;;;;4.50;1.90;;;9.10;99.90;;;;;;5087593;28;20077;-88
2020/12/12 09:24:11;;;;;;;3.20;2.00;;;9.00;99.90;;;;;;5073304;28;20550;-87
2020/12/12 09:26:36;;;;;;;2.72;1.95;;;9.20;99.90;;;;;;5092552;28;20038;-93
2020/12/12 09:29:02;;;;;;;3.88;2.20;;;9.20;99.90;;;;;;5086811;28;20756;-87
2020/12/12 09:31:28;;;;;;;2.80;2.38;;;9.20;99.90;;;;;;5092017;28;20031;-87
2020/12/12 09:33:54;;;;;;;3.17;2.63;;;9.20;99.90;;;;;;5081171;28;20016;-88
2020/12/12 09:36:20;;;;;;;3.40;2.78;;;9.20;99.90;;;;;;5071801;28;20366;-88
2020/12/12 09:38:45;;;;;;;2.17;1.92;;;9.10;99.90;;;;;;5071865;28;20028;-88
2020/12/12 09:41:12;;;;;;;2.30;1.95;;;9.10;99.90;;;;;;5072819;28;20052;-87
2020/12/12 09:43:37;;;;;;;2.33;1.60;;;9.20;99.90;;;;;;5071719;28;20112;-88
2020/12/12 09:46:06;;;;;;;3.03;2.10;;;9.20;99.90;;;;;;5089513;28;20115;-88
2020/12/12 09:48:32;;;;;;;2.13;1.63;;;9.20;99.90;;;;;;5090773;28;20379;-88
2020/12/12 09:50:57;;;;;;;3.55;2.03;;;9.30;1.00;;;;;;5094104;28;20028;-87
2020/12/12 09:53:23;;;;;;;6.63;4.47;;;9.30;1.00;;;;;;5082297;28;20027;-87
2020/12/12 09:55:51;;;;;;;3.35;2.90;;;9.50;1.00;;;;;;5089765;28;20028;-87
2020/12/12 09:58:17;;;;;;;2.33;1.88;;;9.50;1.00;;;;;;5080715;28;20031;-88
2020/12/12 10:00:42;;;;;;;3.38;2.50;;;9.60;1.00;;;;;;5071370;28;20017;-88
2020/12/12 10:03:08;;;;;;;3.75;2.50;;;9.60;1.00;;;;;;5079358;28;20511;-86
2020/12/12 10:05:34;;;;;;;5.47;3.08;;;9.50;1.00;;;;;;5085657;28;20384;-89
2020/12/12 10:08:01;;;;;;;2.28;1.80;;;9.50;1.00;;;;;;5070849;28;20460;-89
2020/12/12 10:10:28;;;;;;;2.47;1.98;;;9.40;1.00;;;;;;5071108;28;20020;-89
2020/12/12 10:12:54;;;;;;;3.13;2.35;;;9.30;1.00;;;;;;5072217;28;20055;-89
2020/12/12 10:15:22;;;;;;;2.25;1.67;;;9.40;1.00;;;;;;5071260;28;20020;-88
2020/12/12 10:17:49;;;;;;;3.30;2.03;;;9.40;1.00;;;;;;5090817;28;20081;-89
2020/12/12 10:20:15;;;;;;;2.42;2.10;;;9.40;1.00;;;;;;5097403;28;20028;-86
2020/12/12 10:22:41;;;;;;;2.85;2.00;;;9.40;1.00;;;;;;5090789;28;20028;-88
2020/12/12 10:25:08;;;;;;;2.50;2.00;;;9.50;1.00;;;;;;5092301;28;20090;-88
2020/12/12 10:27:34;;;;;;;2.67;2.22;;;9.50;1.00;;;;;;5092108;28;20031;-87
2020/12/12 10:30:00;;;;;;;2.28;1.80;;;9.50;1.00;;;;;;5073395;28;20070;-88
2020/12/12 10:32:26;;;;;;;4.25;2.20;;;9.40;1.00;;;;;;5071423;28;20040;-88
2020/12/12 10:34:52;;;;;;;2.47;1.73;;;9.40;1.00;;;;;;5073813;28;20024;-89
2020/12/12 10:37:17;;;;;;;2.35;1.98;;;9.40;1.00;;;;;;5092607;28;20039;-88
2020/12/12 10:42:24;;;;;;;2.63;1.90;;;9.40;1.00;;;;;;5091845;28;20039;-87
2020/12/12 10:44:50;;;;;;;2.65;2.20;;;9.30;1.00;;;;;;5080712;28;20024;-88
2020/12/12 10:47:15;;;;;;;2.20;1.50;;;9.30;1.00;;;;;;5078624;28;20038;-87
2020/12/12 10:49:53;;;;;;;2.70;1.58;;;9.40;1.00;;;;;;5081699;28;20399;-91
2020/12/12 10:52:19;;;;;;;2.72;2.00;;;9.40;1.00;;;;;;5085153;28;20497;-88
2020/12/12 10:54:47;;;;;;;2.60;2.40;;;9.50;1.00;;;;;;5076097;28;20023;-88
2020/12/12 10:57:13;;;;;;;3.05;2.67;;;9.60;1.00;;;;;;5080122;28;20063;-88
2020/12/12 10:59:42;;;;;;;3.47;2.25;;;9.50;1.00;;;;;;5082901;28;20047;-88
2020/12/12 11:02:12;;;;;;;3.42;2.05;;;9.50;1.00;;;;;;5092797;28;20395;-88
2020/12/12 11:04:39;;;;;;;2.55;2.10;;;9.50;1.00;;;;;;5095094;28;20043;-89
2020/12/12 11:07:04;;;;;;;6.28;1.98;;;9.60;1.00;;;;;;5094446;28;20032;-88
2020/12/12 11:09:30;;;;;;;3.00;2.13;;;9.60;1.00;;;;;;5094991;28;20030;-89
2020/12/12 11:11:56;;;;;;;5.35;2.33;;;9.60;1.00;;;;;;5088944;28;20031;-89
2020/12/12 11:14:24;;;;;;;2.97;2.55;;;9.70;1.00;;;;;;5108529;28;20021;-89
2020/12/12 11:16:50;;;;;;;2.30;2.08;;;9.80;1.00;;;;;;5091314;28;20085;-91
2020/12/12 11:19:15;;;;;;;2.53;1.90;;;9.80;1.00;;;;;;5092021;28;20024;-90
2020/12/12 11:21:41;;;;;;;4.30;2.00;;;9.80;1.00;;;;;;5078158;28;20024;-88
2020/12/12 11:24:10;;;;;;;4.72;2.13;;;9.90;1.00;;;;;;5076229;28;20029;-90
2020/12/12 11:26:35;;;;;;;3.75;2.30;;;9.90;1.00;;;;;;5077438;28;20051;-88
2020/12/12 11:29:01;;;;;;;2.50;2.03;;;9.90;1.00;;;;;;5075660;28;20016;-88
2020/12/12 11:31:27;;;;;;;2.97;2.40;;;9.90;1.00;;;;;;5074028;28;20035;-88
2020/12/12 11:34:09;;;;;;;4.00;2.22;;;9.90;1.00;;;;;;5081553;28;20024;-90
2020/12/12 11:36:49;;;;;;;3.05;2.20;;;9.80;1.00;;;;;;5076577;28;20056;-91
2020/12/12 11:46:48;;;;;;;3.95;2.25;;;9.60;1.00;;;;;;5088020;28;20060;-89
2020/12/12 11:49:14;;;;;;;4.80;2.83;;;9.70;1.00;;;;;;5074315;28;20054;-89
2020/12/12 11:51:40;;;;;;;2.80;2.47;;;9.90;1.00;;;;;;5076788;28;20054;-90
2020/12/12 11:54:05;;;;;;;3.58;2.65;;;9.90;1.00;;;;;;5083451;28;20554;-89
2020/12/12 11:57:04;;;;;;;10.38;6.88;;;9.90;1.00;;;;;;5074426;28;20119;-88
2020/12/12 11:59:30;;;;;;;6.97;4.47;;;10.00;1.00;;;;;;5074281;28;20397;-86
2020/12/12 12:01:55;;;;;;;4.90;3.70;;;10.00;1.00;;;;;;5073811;28;20055;-89
2020/12/12 12:04:21;;;;;;;6.72;4.13;;;9.90;1.00;;;;;;5075136;28;20020;-89
2020/12/12 12:06:46;;;;;;;3.38;2.47;;;10.10;1.00;;;;;;5086062;28;20531;-89
2020/12/12 12:09:18;;;;;;;3.97;2.88;;;10.00;1.00;;;;;;5099838;28;20066;-92
2020/12/12 12:11:44;;;;;;;4.10;3.60;;;10.00;1.00;;;;;;5082521;28;20066;-92
2020/12/12 12:14:10;;;;;;;5.32;4.68;;;10.00;1.00;;;;;;5090812;28;20496;-89
2020/12/12 12:16:38;;;;;;;4.97;4.05;;;10.00;1.00;;;;;;5087483;28;20028;-90
2020/12/12 12:19:15;;;;;;;5.10;3.03;;;10.00;1.00;;;;;;5080532;28;20021;-89
2020/12/12 12:21:42;;;;;;;6.32;4.53;;;9.90;1.00;;;;;;5090309;28;20024;-89
2020/12/12 12:24:10;;;;;;;6.32;5.47;;;9.90;1.00;;;;;;5096398;28;20077;-89
2020/12/12 12:26:36;;;;;;;3.28;2.88;;;9.90;1.00;;;;;;5094878;28;20117;-86
2020/12/12 12:29:12;;;;;;;3.28;2.75;;;9.80;1.00;;;;;;5083393;28;20165;-87
2020/12/12 12:31:40;;;;;;;5.65;4.35;;;9.90;1.00;;;;;;5094067;28;20414;-87
2020/12/12 12:34:06;;;;;;;4.55;3.42;;;9.80;1.00;;;;;;5093424;28;20486;-87
2020/12/12 12:36:32;;;;;;;4.93;3.53;;;9.90;1.00;;;;;;5092526;28;20071;-87
2020/12/12 12:38:59;;;;;;;4.20;3.38;;;9.90;1.00;;;;;;5094375;28;20020;-88
2020/12/12 12:41:26;;;;;;;4.15;3.70;;;9.80;1.00;;;;;;5090289;28;20127;-87
2020/12/12 12:43:52;;;;;;;6.05;3.75;;;9.80;1.00;;;;;;5092450;28;20034;-87
2020/12/12 12:46:23;;;;;;;4.45;3.75;;;9.80;1.00;;;;;;5093721;28;20095;-87
2020/12/12 12:48:49;;;;;;;5.00;3.50;;;9.80;1.00;;;;;;5073711;28;20028;-86
2020/12/12 12:51:15;;;;;;;4.00;3.55;;;9.70;1.00;;;;;;5084830;28;20024;-87
2020/12/12 12:53:40;;;;;;;4.00;3.55;;;9.80;1.00;;;;;;5092689;28;20032;-87
2020/12/12 12:56:06;;;;;;;5.72;3.60;;;9.80;1.00;;;;;;5094060;28;20077;-87
2020/12/12 12:58:32;;;;;;;4.97;4.13;;;9.80;1.00;;;;;;5092799;28;20028;-88
2020/12/12 13:00:58;;;;;;;7.25;5.93;;;9.80;1.00;;;;;;5093729;28;20047;-88
2020/12/12 13:03:23;;;;;;;5.63;4.20;;;9.70;1.00;;;;;;5092708;28;20456;-87
2020/12/12 13:05:50;;;;;;;7.00;5.57;;;9.70;1.00;;;;;;5102841;28;20032;-87
2020/12/12 13:08:16;;;;;;;7.55;4.10;;;9.70;1.00;;;;;;5113035;28;20169;-87
2020/12/12 13:10:42;;;;;;;7.63;5.82;;;9.80;1.00;;;;;;5113979;28;20517;-88
2020/12/12 13:13:10;;;;;;;5.65;4.80;;;9.80;1.00;;;;;;5113429;28;20047;-88
2020/12/12 13:15:36;;;;;;;4.53;3.67;;;9.90;1.00;;;;;;5112643;28;20155;-88
2020/12/12 13:18:06;;;;;;;5.35;4.30;;;9.90;1.00;;;;;;5112843;28;20119;-87